Time;durP1;ratioP1;P1;durP2;ratioP2;P2;SDS_P1;SDS_P2;PMS_P1;PMS_P2;Temp;Humidity;BMP_temperature;BMP_pressure;BME280_temperature;BME280_humidity;BME280_pressure;Samples;Min_cycle;Max_cycle;Signal;HPM_P1;HPM_P2
2023/12/20 03:57:50;;;;;;;10.40;4.38;;;;;;;10.72;100.00;99991.78;6276734;22;20355;-84
2023/12/20 04:05:29;;;;;;;13.77;4.78;;;;;;;10.69;100.00;100003.84;6281484;22;20024;-85
2023/12/20 04:07:59;;;;;;;10.73;3.78;;;;;;;10.71;100.00;100005.59;6267866;22;20034;-84
2023/12/20 04:10:40;;;;;;;7.45;3.40;;;;;;;10.67;100.00;99999.47;6272100;22;20019;-87
2023/12/20 04:13:09;;;;;;;9.38;3.53;;;;;;;10.64;100.00;99999.44;6275506;22;20027;-85
2023/12/20 04:15:39;;;;;;;9.88;4.30;;;;;;;10.64;100.00;100010.66;6273673;22;20068;-85
2023/12/20 04:18:08;;;;;;;6.78;3.42;;;;;;;10.61;100.00;100005.44;6271784;22;20020;-87
2023/12/20 04:20:44;;;;;;;6.53;3.10;;;;;;;10.54;100.00;100002.72;6272150;22;20016;-86
2023/12/20 04:23:22;;;;;;;6.57;3.78;;;;;;;10.53;100.00;100004.41;6269865;22;20466;-86
2023/12/20 05:12:26;;;;;;;2.22;1.38;;;;;;;9.92;100.00;100035.13;6279316;22;20023;-87
2023/12/20 05:15:03;;;;;;;1.45;0.85;;;;;;;9.94;100.00;100043.78;6276087;22;20355;-87
2023/12/20 05:17:32;;;;;;;3.45;1.63;;;;;;;9.93;100.00;100038.59;6278706;22;20019;-87
2023/12/20 05:20:01;;;;;;;2.72;0.90;;;;;;;9.93;100.00;100048.91;6277055;22;20020;-87
2023/12/20 05:22:31;;;;;;;2.03;1.08;;;;;;;9.95;100.00;100057.59;6277009;22;20079;-87
2023/12/20 05:33:08;;;;;;;1.52;1.15;;;;;;;9.89;100.00;100067.78;6264928;22;20032;-87
2023/12/20 05:35:54;;;;;;;1.45;0.85;;;;;;;9.85;100.00;100072.03;6242573;23;20017;-87
2023/12/20 05:59:08;;;;;;;2.40;0.80;;;;;;;9.69;100.00;100075.97;6248196;22;20023;-86
2023/12/20 06:01:37;;;;;;;1.67;1.00;;;;;;;9.69;100.00;100081.16;6244348;23;20452;-87
2023/12/20 06:04:07;;;;;;;1.75;0.98;;;;;;;9.67;100.00;100077.66;6247621;23;20020;-87
2023/12/20 06:06:36;;;;;;;10.45;0.98;;;;;;;9.70;100.00;100072.56;6245896;23;20508;-87
2023/12/20 06:09:05;;;;;;;2.47;0.65;;;;;;;9.71;100.00;100078.59;6246238;23;20026;-87
2023/12/20 07:12:51;;;;;;;2.17;1.08;;;;;;;9.14;100.00;100157.28;6268146;22;20087;-86
2023/12/20 07:15:22;;;;;;;1.23;0.88;;;;;;;9.15;100.00;100148.72;6273860;22;20535;-86
2023/12/20 07:17:55;;;;;;;1.42;0.90;;;;;;;9.14;100.00;100141.78;6274184;22;20023;-85
2023/12/20 07:20:24;;;;;;;1.38;0.90;;;;;;;9.12;100.00;100136.59;6273560;22;20020;-85
2023/12/20 07:22:56;;;;;;;1.45;1.10;;;;;;;9.09;100.00;100144.25;6274565;22;20023;-85
2023/12/20 07:25:34;;;;;;;2.15;1.23;;;;;;;9.11;100.00;100162.38;6274539;22;20027;-85
2023/12/20 07:28:12;;;;;;;1.45;0.95;;;;;;;9.11;100.00;100154.63;6274581;22;20082;-87
2023/12/20 07:56:29;;;;;;;7.70;1.50;;;;;;;8.92;100.00;100187.69;6212738;23;20384;-85
2023/12/20 07:58:58;;;;;;;3.10;1.17;;;;;;;8.94;100.00;100190.31;6243731;23;20466;-86
2023/12/20 08:01:37;;;;;;;2.40;1.40;;;;;;;8.99;100.00;100189.59;6242067;23;20020;-85
2023/12/20 08:22:17;;;;;;;4.63;1.75;;;;;;;8.90;100.00;100206.53;6282226;22;20080;-85
2023/12/20 08:24:47;;;;;;;4.22;1.75;;;;;;;8.88;100.00;100203.91;6273760;22;20022;-86
2023/12/20 08:27:16;;;;;;;4.03;1.98;;;;;;;8.88;100.00;100195.31;6272822;22;20470;-86
2023/12/20 08:29:55;;;;;;;4.75;1.75;;;;;;;8.89;100.00;100213.41;6273244;22;20031;-86
2023/12/20 08:32:26;;;;;;;1.65;1.27;;;;;;;8.81;100.00;100215.75;6272557;22;20019;-86
2023/12/20 08:34:55;;;;;;;3.25;1.00;;;;;;;8.69;100.00;100214.56;6272987;22;20038;-86
2023/12/20 08:37:32;;;;;;;2.80;1.13;;;;;;;8.69;100.00;100222.31;6273372;22;20035;-85
2023/12/20 08:40:04;;;;;;;2.60;1.10;;;;;;;8.70;100.00;100227.47;6272864;22;20043;-87
2023/12/20 08:42:36;;;;;;;2.13;1.27;;;;;;;8.70;100.00;100214.59;6274105;22;20020;-87
2023/12/20 09:03:13;;;;;;;1.92;1.08;;;;;;;8.59;100.00;100219.47;6286148;22;20004;-85
2023/12/20 09:05:42;;;;;;;2.67;1.52;;;;;;;8.60;100.00;100215.16;6274252;22;20020;-85
2023/12/20 09:08:15;;;;;;;2.92;1.42;;;;;;;8.62;100.00;100226.41;6273303;22;20024;-83
2023/12/20 09:10:44;;;;;;;3.38;1.40;;;;;;;8.60;100.00;100223.78;6273265;22;20019;-86
2023/12/20 09:13:13;;;;;;;4.03;1.80;;;;;;;8.60;100.00;100217.75;6273568;22;20054;-85
2023/12/20 09:15:42;;;;;;;2.35;1.25;;;;;;;8.63;100.00;100222.97;6273458;22;20027;-86
2023/12/20 09:18:13;;;;;;;1.50;1.00;;;;;;;8.66;100.00;100219.63;6273699;22;20062;-87
2023/12/20 09:20:43;;;;;;;2.05;1.20;;;;;;;8.65;100.00;100225.63;6273122;22;20020;-88
2023/12/20 09:23:12;;;;;;;3.85;1.20;;;;;;;8.64;100.00;100231.63;6274321;22;20039;-88
2023/12/20 09:25:41;;;;;;;2.55;1.10;;;;;;;8.55;100.00;100225.34;6273686;22;20027;-87
2023/12/20 09:28:10;;;;;;;1.90;1.00;;;;;;;8.51;100.00;100230.38;6275297;22;20016;-85
2023/12/20 09:30:42;;;;;;;1.48;1.13;;;;;;;8.44;100.00;100229.31;6273506;22;20012;-84
2023/12/20 09:33:13;;;;;;;2.60;1.20;;;;;;;8.45;100.00;100230.19;6274147;22;20027;-85
2023/12/20 09:35:42;;;;;;;1.67;1.10;;;;;;;8.48;100.00;100236.31;6275834;22;20023;-85
2023/12/20 09:38:12;;;;;;;1.83;1.33;;;;;;;8.54;100.00;100244.25;6273002;22;20026;-86
2023/12/20 09:40:47;;;;;;;2.55;1.30;;;;;;;8.55;100.00;100245.13;6272617;22;20019;-87
2023/12/20 09:43:18;;;;;;;5.00;1.30;;;;;;;8.54;100.00;100244.25;6273629;22;20020;-86
2023/12/20 10:45:54;;;;;;;0.93;0.70;;;;;;;7.91;100.00;100314.41;6273931;22;20034;-84
2023/12/20 10:48:28;;;;;;;0.95;0.70;;;;;;;7.95;100.00;100326.56;6276212;22;20029;-87
2023/12/20 10:51:02;;;;;;;1.65;1.08;;;;;;;7.99;100.00;100337.81;6276085;22;20015;-85
2023/12/20 10:53:32;;;;;;;1.25;0.70;;;;;;;8.02;100.00;100343.09;6273901;22;20443;-86
2023/12/20 10:56:04;;;;;;;3.55;1.40;;;;;;;8.02;100.00;100352.50;6274660;22;20016;-86
2023/12/20 10:58:36;;;;;;;2.55;1.30;;;;;;;8.01;100.00;100349.06;6273407;22;20019;-86
2023/12/20 11:42:35;;;;;;;1.20;0.93;;;;;;;7.99;100.00;100358.44;6242738;23;20024;-88
2023/12/20 11:45:05;;;;;;;1.95;0.95;;;;;;;8.01;100.00;100366.22;6244413;23;20048;-88
2023/12/20 12:21:24;;;;;;;1.60;1.17;;;;;;;7.86;100.00;100371.75;6260083;22;20046;-87
2023/12/20 12:23:53;;;;;;;2.20;1.20;;;;;;;7.81;100.00;100388.72;6273725;22;20031;-87
2023/12/20 12:26:22;;;;;;;4.07;1.35;;;;;;;7.74;100.00;100388.53;6267877;22;20073;-87
2023/12/20 12:28:59;;;;;;;4.53;1.70;;;;;;;7.65;100.00;100393.38;6273700;22;20015;-86
2023/12/20 12:31:28;;;;;;;3.97;1.80;;;;;;;7.62;100.00;100408.69;6274253;22;20019;-87
2023/12/20 12:33:57;;;;;;;4.00;1.90;;;;;;;7.59;100.00;100403.44;6275027;22;20020;-87
2023/12/20 12:36:30;;;;;;;2.70;1.58;;;;;;;7.60;100.00;100406.88;6275751;22;20027;-87
2023/12/20 12:39:03;;;;;;;3.30;1.90;;;;;;;7.66;100.00;100420.84;6272357;22;20012;-87
2023/12/20 12:41:32;;;;;;;3.88;1.75;;;;;;;7.66;100.00;100410.56;6274441;22;20446;-87
2023/12/20 12:44:01;;;;;;;4.82;1.88;;;;;;;7.69;100.00;100423.53;6272860;22;20024;-87
2023/12/20 12:46:32;;;;;;;2.75;1.70;;;;;;;7.71;100.00;100429.59;6273508;22;20016;-88
2023/12/20 12:49:12;;;;;;;4.03;1.80;;;;;;;7.67;100.00;100430.34;6272808;22;20054;-89
2023/12/20 12:51:44;;;;;;;3.17;1.90;;;;;;;7.63;100.00;100441.34;6274185;22;20451;-87
2023/12/20 12:54:16;;;;;;;2.47;1.37;;;;;;;7.57;100.00;100456.56;6274204;22;20031;-87
2023/12/20 12:56:52;;;;;;;3.15;1.48;;;;;;;7.54;100.00;100457.34;6273221;22;20417;-89
2023/12/20 12:59:22;;;;;;;1.30;0.90;;;;;;;7.54;100.00;100462.47;6274398;22;20019;-88
2023/12/20 13:01:51;;;;;;;2.28;1.50;;;;;;;7.54;100.00;100462.47;6273725;22;20111;-87
2023/12/20 13:04:27;;;;;;;3.03;1.38;;;;;;;7.50;100.00;100464.88;6274116;22;20015;-88
2023/12/20 13:06:59;;;;;;;3.25;1.90;;;;;;;7.41;100.00;100460.28;6274060;22;20015;-88
2023/12/20 13:09:28;;;;;;;2.97;1.40;;;;;;;7.44;100.00;100472.38;6274165;22;20015;-87
2023/12/20 13:12:06;;;;;;;2.75;1.40;;;;;;;7.44;100.00;100470.66;6276398;22;20019;-88
2023/12/20 13:14:37;;;;;;;3.58;1.38;;;;;;;7.45;100.00;100466.44;6272734;22;20058;-88
2023/12/20 13:17:06;;;;;;;1.88;1.33;;;;;;;7.39;100.00;100464.47;6273951;22;20020;-88
2023/12/20 13:19:35;;;;;;;5.63;2.70;;;;;;;7.42;100.00;100490.34;6273395;22;20241;-86
2023/12/20 13:22:14;;;;;;;2.60;1.13;;;;;;;7.38;100.00;100496.19;6275175;22;20023;-87
2023/12/20 13:24:44;;;;;;;2.60;1.50;;;;;;;7.32;100.00;100488.22;6275744;22;20042;-88
2023/12/20 13:27:13;;;;;;;1.55;0.95;;;;;;;7.28;100.00;100489.84;6275305;22;20020;-87
2023/12/20 13:29:48;;;;;;;2.10;1.10;;;;;;;7.25;100.00;100488.81;6274919;22;20104;-87
2023/12/20 13:32:20;;;;;;;2.60;1.00;;;;;;;7.30;100.00;100495.88;6275625;22;20073;-86
2023/12/20 13:34:49;;;;;;;1.83;1.10;;;;;;;7.34;100.00;100487.47;6276247;22;20074;-86
2023/12/20 13:37:30;;;;;;;3.17;1.50;;;;;;;7.33;100.00;100475.44;6274136;22;20019;-87
2023/12/20 13:55:25;;;;;;;1.20;0.80;;;;;;;7.25;100.00;100500.00;6216443;23;20021;-88
2023/12/20 13:57:54;;;;;;;1.83;1.15;;;;;;;7.29;100.00;100506.16;6214262;23;20016;-86
2023/12/20 14:00:28;;;;;;;2.70;1.05;;;;;;;7.24;100.00;100503.41;6214189;23;20027;-86
2023/12/20 14:02:58;;;;;;;1.38;1.13;;;;;;;7.23;100.00;100506.78;6214475;23;20100;-86
2023/12/20 14:05:28;;;;;;;1.10;1.00;;;;;;;7.27;100.00;100513.78;6214558;23;20029;-86
2023/12/20 14:07:58;;;;;;;3.55;1.13;;;;;;;7.20;100.00;100516.94;6244146;23;20067;-87
2023/12/20 14:18:21;;;;;;;4.32;1.00;;;;;;;7.18;100.00;100517.72;6262842;22;20086;-86
2023/12/20 14:20:51;;;;;;;3.08;1.35;;;;;;;7.18;100.00;100518.59;6244837;23;20020;-85
2023/12/20 14:23:25;;;;;;;3.88;1.20;;;;;;;7.22;100.00;100525.63;6244133;23;20016;-87
2023/12/20 14:26:00;;;;;;;2.85;1.10;;;;;;;7.26;100.00;100517.19;6247429;23;20039;-87
2023/12/20 14:28:29;;;;;;;1.45;0.80;;;;;;;7.30;100.00;100513.03;6244321;23;20016;-86
2023/12/20 14:30:58;;;;;;;1.05;0.80;;;;;;;7.26;100.00;100514.63;6243007;23;20024;-85
2023/12/20 14:33:38;;;;;;;2.38;0.93;;;;;;;7.21;100.00;100508.41;6244080;23;20016;-88
2023/12/20 14:36:09;;;;;;;1.90;1.10;;;;;;;7.17;100.00;100509.13;6244203;23;20016;-87
2023/12/20 14:38:39;;;;;;;1.35;0.70;;;;;;;7.18;100.00;100528.00;6244587;23;20044;-88
2023/12/20 14:41:19;;;;;;;2.33;1.10;;;;;;;7.13;100.00;100527.81;6243462;23;20451;-88
2023/12/20 14:43:48;;;;;;;2.85;1.27;;;;;;;7.13;100.00;100544.13;6274116;22;20451;-88
2023/12/20 14:46:17;;;;;;;1.13;0.77;;;;;;;7.08;100.00;100555.06;6274701;22;20027;-87
2023/12/20 14:49:03;;;;;;;0.90;0.73;;;;;;;6.97;100.00;100553.75;6275372;22;20016;-88
2023/12/20 14:51:33;;;;;;;1.75;1.00;;;;;;;6.99;100.00;100567.56;6275428;22;20043;-88
2023/12/20 14:54:02;;;;;;;1.52;1.10;;;;;;;6.98;100.00;100569.22;6275146;22;20091;-88
2023/12/20 14:56:40;;;;;;;2.25;1.13;;;;;;;6.99;100.00;100562.41;6275656;22;20458;-88
2023/12/20 14:59:10;;;;;;;1.35;0.75;;;;;;;6.96;100.00;100567.41;6276242;22;20015;-89
2023/12/20 15:01:41;;;;;;;1.58;1.20;;;;;;;6.90;100.00;100578.34;6271300;22;20085;-88
2023/12/20 15:04:30;;;;;;;1.33;0.80;;;;;;;6.83;100.00;100597.78;6274803;22;20197;-85
2023/12/20 15:07:00;;;;;;;0.90;0.82;;;;;;;6.83;100.00;100608.06;6268480;22;20019;-86
2023/12/20 15:09:47;;;;;;;2.63;1.10;;;;;;;6.84;100.00;100603.81;6267941;22;20516;-85
2023/12/20 15:12:16;;;;;;;2.63;1.60;;;;;;;6.83;100.00;100604.63;6272531;22;20297;-87
2023/12/20 15:22:54;;;;;;;1.55;1.00;;;;;;;6.55;100.00;100592.28;6275002;22;20023;-86
2023/12/20 15:25:32;;;;;;;1.75;0.82;;;;;;;6.42;100.00;100590.88;6275239;22;20020;-89
2023/12/20 15:28:02;;;;;;;2.22;0.90;;;;;;;6.37;100.00;100592.34;6277318;22;20015;-88
2023/12/20 15:30:31;;;;;;;1.48;1.02;;;;;;;6.40;100.00;100595.94;6276274;22;20090;-87
2023/12/20 16:19:29;;;;;;;2.22;1.17;;;;;;;6.19;100.00;100633.53;6284530;22;20015;-92
2023/12/20 16:40:19;;;;;;;2.13;1.23;;;;;;;6.74;100.00;100643.69;6279601;22;20038;-91
2023/12/20 16:42:57;;;;;;;1.50;1.08;;;;;;;6.81;100.00;100637.13;6278494;22;20023;-91
2023/12/20 16:55:44;;;;;;;1.77;1.10;;;;;;;7.04;100.00;100662.09;6286501;22;20116;-90
